sensor_id;sensor_type;location;lat;lon;timestamp;temperature;humidity
23769;DHT22;12064;50.890;5.424;2022-10-23T00:04:07;23.60;77.50
23769;DHT22;12064;50.890;5.424;2022-10-23T00:13:00;23.50;77.60
23769;DHT22;12064;50.890;5.424;2022-10-23T00:21:50;23.50;77.50
23769;DHT22;12064;50.890;5.424;2022-10-23T00:30:41;23.60;77.50
23769;DHT22;12064;50.890;5.424;2022-10-23T00:39:35;23.60;77.50
23769;DHT22;12064;50.890;5.424;2022-10-23T00:48:28;23.60;77.50
23769;DHT22;12064;50.890;5.424;2022-10-23T00:57:19;23.50;77.50
23769;DHT22;12064;50.890;5.424;2022-10-23T01:06:23;23.50;77.60
23769;DHT22;12064;50.890;5.424;2022-10-23T01:15:25;23.40;78.30
23769;DHT22;12064;50.890;5.424;2022-10-23T01:33:26;23.40;77.40
23769;DHT22;12064;50.890;5.424;2022-10-23T01:42:23;23.50;77.40
23769;DHT22;12064;50.890;5.424;2022-10-23T01:51:16;23.40;77.50
23769;DHT22;12064;50.890;5.424;2022-10-23T02:00:10;23.40;77.60
23769;DHT22;12064;50.890;5.424;2022-10-23T02:28:31;23.40;77.60
23769;DHT22;12064;50.890;5.424;2022-10-23T02:37:24;23.40;77.50
23769;DHT22;12064;50.890;5.424;2022-10-23T02:46:25;23.50;77.50
23769;DHT22;12064;50.890;5.424;2022-10-23T03:04:23;23.30;77.70
23769;DHT22;12064;50.890;5.424;2022-10-23T03:13:15;23.30;77.60
23769;DHT22;12064;50.890;5.424;2022-10-23T03:22:06;23.40;77.70
23769;DHT22;12064;50.890;5.424;2022-10-23T03:30:57;23.40;77.70
23769;DHT22;12064;50.890;5.424;2022-10-23T03:39:47;23.30;77.60
23769;DHT22;12064;50.890;5.424;2022-10-23T03:48:38;23.40;77.70
23769;DHT22;12064;50.890;5.424;2022-10-23T04:07:06;23.20;78.00
23769;DHT22;12064;50.890;5.424;2022-10-23T04:25:44;23.30;77.80
23769;DHT22;12064;50.890;5.424;2022-10-23T04:34:34;23.20;77.90
23769;DHT22;12064;50.890;5.424;2022-10-23T04:43:25;23.20;78.00
23769;DHT22;12064;50.890;5.424;2022-10-23T04:52:18;23.20;77.90
23769;DHT22;12064;50.890;5.424;2022-10-23T05:01:09;23.30;77.90
23769;DHT22;12064;50.890;5.424;2022-10-23T05:10:08;23.30;77.90
23769;DHT22;12064;50.890;5.424;2022-10-23T05:19:13;23.40;78.60
23769;DHT22;12064;50.890;5.424;2022-10-23T05:28:07;23.50;78.70
23769;DHT22;12064;50.890;5.424;2022-10-23T05:37:01;23.90;79.40
23769;DHT22;12064;50.890;5.424;2022-10-23T05:45:53;24.20;78.30
23769;DHT22;12064;50.890;5.424;2022-10-23T05:54:44;24.40;78.10
23769;DHT22;12064;50.890;5.424;2022-10-23T06:03:38;24.50;78.00
23769;DHT22;12064;50.890;5.424;2022-10-23T06:12:30;24.90;76.40
23769;DHT22;12064;50.890;5.424;2022-10-23T06:21:21;25.10;75.90
23769;DHT22;12064;50.890;5.424;2022-10-23T06:30:16;25.10;76.40
23769;DHT22;12064;50.890;5.424;2022-10-23T06:39:06;25.10;76.50
23769;DHT22;12064;50.890;5.424;2022-10-23T06:48:00;25.00;76.30
23769;DHT22;12064;50.890;5.424;2022-10-23T06:56:53;25.00;76.10
23769;DHT22;12064;50.890;5.424;2022-10-23T07:05:44;24.90;76.20
23769;DHT22;12064;50.890;5.424;2022-10-23T07:14:36;24.70;76.30
23769;DHT22;12064;50.890;5.424;2022-10-23T07:23:27;24.70;76.50
23769;DHT22;12064;50.890;5.424;2022-10-23T07:42:16;24.60;77.10
23769;DHT22;12064;50.890;5.424;2022-10-23T07:51:14;24.90;76.30
23769;DHT22;12064;50.890;5.424;2022-10-23T08:00:09;25.10;76.20
23769;DHT22;12064;50.890;5.424;2022-10-23T08:09:09;25.20;76.00
23769;DHT22;12064;50.890;5.424;2022-10-23T08:18:00;25.20;76.10
23769;DHT22;12064;50.890;5.424;2022-10-23T08:26:51;25.30;76.00
23769;DHT22;12064;50.890;5.424;2022-10-23T08:35:41;25.40;75.40
23769;DHT22;12064;50.890;5.424;2022-10-23T08:44:45;25.50;74.70
23769;DHT22;12064;50.890;5.424;2022-10-23T08:54:15;25.40;74.50
23769;DHT22;12064;50.890;5.424;2022-10-23T09:03:26;25.50;74.30
23769;DHT22;12064;50.890;5.424;2022-10-23T09:12:21;25.30;74.60
23769;DHT22;12064;50.890;5.424;2022-10-23T09:21:12;25.10;75.10
23769;DHT22;12064;50.890;5.424;2022-10-23T09:30:45;24.70;75.80
23769;DHT22;12064;50.890;5.424;2022-10-23T09:39:35;24.50;76.20
23769;DHT22;12064;50.890;5.424;2022-10-23T09:48:26;24.50;76.10
23769;DHT22;12064;50.890;5.424;2022-10-23T09:57:39;24.40;76.20
23769;DHT22;12064;50.890;5.424;2022-10-23T10:06:32;24.30;76.60
23769;DHT22;12064;50.890;5.424;2022-10-23T10:43:10;24.00;76.60
23769;DHT22;12064;50.890;5.424;2022-10-23T11:10:40;23.70;76.90
23769;DHT22;12064;50.890;5.424;2022-10-23T11:19:39;23.80;76.80
23769;DHT22;12064;50.890;5.424;2022-10-23T11:29:02;23.70;76.70
23769;DHT22;12064;50.890;5.424;2022-10-23T11:38:22;23.70;77.00
23769;DHT22;12064;50.890;5.424;2022-10-23T11:47:37;23.60;77.40
23769;DHT22;12064;50.890;5.424;2022-10-23T11:56:27;23.80;77.40
23769;DHT22;12064;50.890;5.424;2022-10-23T12:05:35;24.00;76.60
23769;DHT22;12064;50.890;5.424;2022-10-23T12:14:47;24.00;78.00
23769;DHT22;12064;50.890;5.424;2022-10-23T12:42:27;24.10;76.40
23769;DHT22;12064;50.890;5.424;2022-10-23T12:51:23;23.90;77.40
23769;DHT22;12064;50.890;5.424;2022-10-23T13:00:20;24.10;76.30
23769;DHT22;12064;50.890;5.424;2022-10-23T13:09:40;24.20;75.60
23769;DHT22;12064;50.890;5.424;2022-10-23T13:18:41;24.10;75.70
23769;DHT22;12064;50.890;5.424;2022-10-23T13:27:33;24.00;76.50
23769;DHT22;12064;50.890;5.424;2022-10-23T13:36:24;24.10;76.60
23769;DHT22;12064;50.890;5.424;2022-10-23T13:45:24;24.00;76.90
23769;DHT22;12064;50.890;5.424;2022-10-23T13:54:21;24.00;77.20
23769;DHT22;12064;50.890;5.424;2022-10-23T14:03:12;24.30;76.10
23769;DHT22;12064;50.890;5.424;2022-10-23T14:12:19;24.30;76.00
23769;DHT22;12064;50.890;5.424;2022-10-23T14:21:12;24.10;76.50
23769;DHT22;12064;50.890;5.424;2022-10-23T14:30:03;24.00;76.60
23769;DHT22;12064;50.890;5.424;2022-10-23T14:38:56;24.00;76.70
23769;DHT22;12064;50.890;5.424;2022-10-23T14:47:50;23.90;77.50
23769;DHT22;12064;50.890;5.424;2022-10-23T14:56:41;24.00;77.90
23769;DHT22;12064;50.890;5.424;2022-10-23T15:05:32;24.10;76.70
23769;DHT22;12064;50.890;5.424;2022-10-23T15:14:22;24.00;76.60
23769;DHT22;12064;50.890;5.424;2022-10-23T15:23:36;24.00;76.90
23769;DHT22;12064;50.890;5.424;2022-10-23T15:32:27;23.80;77.20
23769;DHT22;12064;50.890;5.424;2022-10-23T15:41:24;24.10;77.50
23769;DHT22;12064;50.890;5.424;2022-10-23T15:50:19;23.90;78.10
23769;DHT22;12064;50.890;5.424;2022-10-23T15:59:13;24.10;77.50
23769;DHT22;12064;50.890;5.424;2022-10-23T16:08:08;24.00;78.00
23769;DHT22;12064;50.890;5.424;2022-10-23T16:17:01;24.00;78.10
23769;DHT22;12064;50.890;5.424;2022-10-23T16:25:54;24.10;77.90
23769;DHT22;12064;50.890;5.424;2022-10-23T16:34:47;24.30;76.70
23769;DHT22;12064;50.890;5.424;2022-10-23T16:43:38;24.40;76.20
23769;DHT22;12064;50.890;5.424;2022-10-23T16:52:36;24.20;76.90
23769;DHT22;12064;50.890;5.424;2022-10-23T17:01:28;24.00;77.70
23769;DHT22;12064;50.890;5.424;2022-10-23T17:10:28;24.00;77.90
23769;DHT22;12064;50.890;5.424;2022-10-23T17:19:21;23.90;78.00
23769;DHT22;12064;50.890;5.424;2022-10-23T17:28:15;23.90;78.20
23769;DHT22;12064;50.890;5.424;2022-10-23T17:37:06;23.80;78.40
23769;DHT22;12064;50.890;5.424;2022-10-23T17:45:57;23.80;78.50
23769;DHT22;12064;50.890;5.424;2022-10-23T17:54:50;23.80;78.30
23769;DHT22;12064;50.890;5.424;2022-10-23T18:03:46;23.80;79.20
23769;DHT22;12064;50.890;5.424;2022-10-23T18:12:37;23.60;79.60
23769;DHT22;12064;50.890;5.424;2022-10-23T18:21:28;23.90;79.30
23769;DHT22;12064;50.890;5.424;2022-10-23T18:30:18;23.90;78.90
23769;DHT22;12064;50.890;5.424;2022-10-23T18:39:12;24.00;78.60
23769;DHT22;12064;50.890;5.424;2022-10-23T18:48:04;24.00;78.10
23769;DHT22;12064;50.890;5.424;2022-10-23T18:56:58;24.10;78.00
23769;DHT22;12064;50.890;5.424;2022-10-23T19:05:48;24.00;78.30
23769;DHT22;12064;50.890;5.424;2022-10-23T19:14:40;24.20;77.20
23769;DHT22;12064;50.890;5.424;2022-10-23T19:23:34;24.50;77.10
23769;DHT22;12064;50.890;5.424;2022-10-23T19:32:29;24.60;76.50
23769;DHT22;12064;50.890;5.424;2022-10-23T19:41:22;24.80;76.30
23769;DHT22;12064;50.890;5.424;2022-10-23T19:50:13;24.90;76.20
23769;DHT22;12064;50.890;5.424;2022-10-23T19:59:03;25.10;76.20
23769;DHT22;12064;50.890;5.424;2022-10-23T20:17:33;25.00;75.60
23769;DHT22;12064;50.890;5.424;2022-10-23T20:26:24;24.90;76.00
23769;DHT22;12064;50.890;5.424;2022-10-23T20:35:15;24.90;76.60
23769;DHT22;12064;50.890;5.424;2022-10-23T20:44:08;24.80;77.10
23769;DHT22;12064;50.890;5.424;2022-10-23T20:53:00;24.90;76.90
23769;DHT22;12064;50.890;5.424;2022-10-23T21:01:56;25.20;76.80
23769;DHT22;12064;50.890;5.424;2022-10-23T21:11:11;24.80;75.30
23769;DHT22;12064;50.890;5.424;2022-10-23T21:20:26;24.40;76.50
23769;DHT22;12064;50.890;5.424;2022-10-23T21:29:19;24.20;77.00
23769;DHT22;12064;50.890;5.424;2022-10-23T21:38:10;24.10;77.20
23769;DHT22;12064;50.890;5.424;2022-10-23T21:47:04;23.90;78.20
23769;DHT22;12064;50.890;5.424;2022-10-23T21:56:00;23.90;77.70
23769;DHT22;12064;50.890;5.424;2022-10-23T22:04:52;23.70;78.00
23769;DHT22;12064;50.890;5.424;2022-10-23T22:13:45;23.70;78.10
23769;DHT22;12064;50.890;5.424;2022-10-23T22:22:36;23.70;78.30
23769;DHT22;12064;50.890;5.424;2022-10-23T22:31:29;23.70;78.20
23769;DHT22;12064;50.890;5.424;2022-10-23T22:40:20;23.60;78.30
23769;DHT22;12064;50.890;5.424;2022-10-23T22:49:10;23.50;78.60
23769;DHT22;12064;50.890;5.424;2022-10-23T22:58:01;23.50;78.70
23769;DHT22;12064;50.890;5.424;2022-10-23T23:06:54;23.50;78.60
23769;DHT22;12064;50.890;5.424;2022-10-23T23:15:45;23.40;78.80
23769;DHT22;12064;50.890;5.424;2022-10-23T23:24:51;23.50;78.70
23769;DHT22;12064;50.890;5.424;2022-10-23T23:33:42;23.40;78.80
23769;DHT22;12064;50.890;5.424;2022-10-23T23:42:37;23.40;78.90
23769;DHT22;12064;50.890;5.424;2022-10-23T23:51:42;23.40;78.90
